Terminal Aerodrome Forecast
Issued by NWS Billings, MT

Home | Current Version | Previous Version | Text Only | Print | Product List | Glossary On
Versions: 1 2 3 4 5 6 7 8 9 10 11 12 13 14 15 16 17 18 19 20 21 22 23 24 25 26 27 28 29 30 31 32 33 34 35 36
000
FTUS45 KBYZ 241139
TAFBIL
TAF
KBIL 241139Z 2412/2512 24009KT P6SM VCSH FEW110 SCT230
     FM242000 05009KT P6SM VCTS SCT060CB
     FM250200 04008KT 6SM -RA SCT015 OVC025=

USA.gov is the U.S. government's official web portal to all federal, state and local government web resources and services.